Time;durP1;ratioP1;P1;durP2;ratioP2;P2;SDS_P1;SDS_P2;PMS_P1;PMS_P2;Temp;Humidity;BMP_temperature;BMP_pressure;BME280_temperature;BME280_humidity;BME280_pressure;Samples;Min_cycle;Max_cycle;Signal;HPM_P1;HPM_P2
2022/06/14 00:03:11;;;;;;;10.85;4.90;;;23.80;99.90;;;;;;5071133;28;20220;-75
2022/06/14 00:05:38;;;;;;;6.72;4.40;;;23.80;99.90;;;;;;5071312;28;20559;-74
2022/06/14 00:08:05;;;;;;;9.20;4.95;;;23.70;99.90;;;;;;5070607;28;20252;-75
2022/06/14 00:10:32;;;;;;;5.35;4.72;;;23.60;99.90;;;;;;5070956;28;20206;-75
2022/06/14 00:13:00;;;;;;;6.75;5.03;;;23.60;99.90;;;;;;5071643;28;20202;-76
2022/06/14 00:15:27;;;;;;;5.82;4.40;;;23.60;99.90;;;;;;5071380;28;20213;-74
2022/06/14 00:17:53;;;;;;;6.47;4.68;;;23.60;99.90;;;;;;5070921;28;20259;-74
2022/06/14 00:20:22;;;;;;;9.07;4.63;;;23.50;99.90;;;;;;5070556;28;20210;-74
2022/06/14 00:22:49;;;;;;;6.05;3.72;;;23.50;99.90;;;;;;5070575;28;20246;-74
2022/06/14 00:25:24;;;;;;;8.75;4.90;;;23.50;99.90;;;;;;5070742;28;20255;-75
2022/06/14 00:27:52;;;;;;;7.28;4.60;;;23.50;99.90;;;;;;5070840;28;20206;-74
2022/06/14 00:30:20;;;;;;;6.53;4.80;;;23.40;99.90;;;;;;5070505;28;20207;-75
2022/06/14 00:32:47;;;;;;;6.28;3.78;;;23.40;99.90;;;;;;5070407;28;20210;-75
2022/06/14 00:35:15;;;;;;;10.00;4.35;;;23.40;99.90;;;;;;5070085;28;20266;-75
2022/06/14 00:37:43;;;;;;;7.18;4.68;;;23.30;99.90;;;;;;5070807;28;20269;-75
2022/06/14 00:40:13;;;;;;;5.88;5.00;;;23.30;99.90;;;;;;5070388;28;20214;-75
2022/06/14 00:42:41;;;;;;;9.65;4.63;;;23.40;99.90;;;;;;5070617;28;20230;-75
2022/06/14 00:45:30;;;;;;;4.95;4.18;;;23.40;99.90;;;;;;5070192;28;20210;-76
2022/06/14 00:48:03;;;;;;;7.05;4.78;;;23.30;99.90;;;;;;5070945;28;20669;-75
2022/06/14 00:50:33;;;;;;;5.53;4.97;;;23.20;99.90;;;;;;5070769;28;20206;-76
2022/06/14 00:53:08;;;;;;;9.35;5.55;;;23.20;99.90;;;;;;5070371;28;20576;-75
2022/06/14 00:55:41;;;;;;;5.32;4.88;;;23.20;99.90;;;;;;5070530;28;20206;-76
2022/06/14 00:58:13;;;;;;;4.68;4.28;;;23.20;99.90;;;;;;5070171;28;20210;-74
2022/06/14 01:00:48;;;;;;;8.32;5.70;;;23.20;99.90;;;;;;5070442;28;20206;-74
2022/06/14 01:03:19;;;;;;;8.45;5.30;;;23.20;99.90;;;;;;5070264;28;20206;-75
2022/06/14 01:06:08;;;;;;;7.00;4.30;;;23.20;99.90;;;;;;5070493;28;20233;-74
2022/06/14 01:08:41;;;;;;;4.97;4.57;;;23.10;99.90;;;;;;5070389;28;20217;-74
2022/06/14 01:11:11;;;;;;;8.55;4.63;;;23.00;99.90;;;;;;5069851;28;20260;-74
2022/06/14 01:13:39;;;;;;;6.15;4.57;;;23.10;99.90;;;;;;5070598;28;20206;-75
2022/06/14 01:16:07;;;;;;;5.25;4.75;;;23.10;99.90;;;;;;5069942;28;20259;-75
2022/06/14 01:18:36;;;;;;;5.75;4.95;;;23.00;99.90;;;;;;5070354;28;20673;-75
2022/06/14 01:21:03;;;;;;;5.93;4.30;;;22.90;99.90;;;;;;5069510;28;20390;-75
2022/06/14 01:23:33;;;;;;;5.80;4.28;;;22.90;99.90;;;;;;5070592;28;20199;-75
2022/06/14 01:26:09;;;;;;;6.40;4.35;;;22.90;99.90;;;;;;5070577;28;20743;-74
2022/06/14 01:28:37;;;;;;;8.95;4.82;;;22.80;99.90;;;;;;5070211;28;20205;-75
2022/06/14 01:31:05;;;;;;;9.68;5.05;;;22.90;99.90;;;;;;5069799;28;20269;-74
2022/06/14 01:33:37;;;;;;;6.18;4.93;;;22.90;99.90;;;;;;5069914;28;20234;-75
2022/06/14 01:36:09;;;;;;;6.55;4.70;;;22.90;99.90;;;;;;5069366;28;20206;-75
2022/06/14 01:38:38;;;;;;;7.90;4.53;;;22.90;99.90;;;;;;5069519;28;20245;-75
2022/06/14 01:41:09;;;;;;;6.35;5.47;;;22.80;99.90;;;;;;5073115;28;20527;-75
2022/06/14 01:43:52;;;;;;;5.45;4.50;;;22.70;99.90;;;;;;5085164;28;20209;-74
2022/06/14 01:46:23;;;;;;;10.07;5.07;;;22.70;99.90;;;;;;5079300;28;20206;-76
2022/06/14 01:51:50;;;;;;;8.75;5.72;;;22.80;99.90;;;;;;5093972;28;20224;-75
2022/06/14 01:51:59;;;;;;;9.52;5.65;;;22.80;99.90;;;;;;5093694;28;20205;-76
2022/06/14 01:54:36;;;;;;;5.13;4.63;;;22.70;99.90;;;;;;5082700;28;20565;-74
2022/06/14 01:57:10;;;;;;;9.45;6.13;;;22.70;99.90;;;;;;5092249;28;20201;-74
2022/06/14 01:59:47;;;;;;;7.40;5.20;;;22.80;99.90;;;;;;5093980;28;20641;-73
2022/06/14 02:02:23;;;;;;;6.20;5.60;;;22.80;99.90;;;;;;5093368;28;20229;-74
2022/06/14 02:04:57;;;;;;;6.25;5.18;;;22.70;99.90;;;;;;5093650;28;20209;-74
2022/06/14 02:07:31;;;;;;;5.55;4.97;;;22.70;99.90;;;;;;5093522;28;20680;-74
2022/06/14 02:10:05;;;;;;;6.50;4.90;;;22.70;99.90;;;;;;5094203;28;20210;-75
2022/06/14 02:12:41;;;;;;;8.20;5.35;;;22.60;99.90;;;;;;5079351;28;20733;-74
2022/06/14 02:15:17;;;;;;;6.53;5.00;;;22.60;99.90;;;;;;5093216;28;20209;-74
2022/06/14 02:17:49;;;;;;;6.07;5.32;;;22.60;99.90;;;;;;5093840;28;20201;-74
2022/06/14 02:20:20;;;;;;;5.45;5.05;;;22.50;99.90;;;;;;5093146;28;20205;-75
2022/06/14 02:22:51;;;;;;;5.05;4.65;;;22.50;99.90;;;;;;5093544;28;20237;-74
2022/06/14 02:25:24;;;;;;;6.95;5.53;;;22.50;99.90;;;;;;5093120;28;20209;-74
2022/06/14 02:27:55;;;;;;;8.80;4.95;;;22.50;99.90;;;;;;5093854;28;20258;-74
2022/06/14 02:30:26;;;;;;;8.23;6.00;;;22.40;99.90;;;;;;5093024;28;20669;-75
2022/06/14 02:32:59;;;;;;;6.35;5.57;;;22.40;99.90;;;;;;5093154;28;20254;-74
2022/06/14 02:35:33;;;;;;;6.38;4.97;;;22.40;99.90;;;;;;5093134;28;20227;-75
2022/06/14 02:38:09;;;;;;;6.63;5.85;;;22.40;99.90;;;;;;5093156;28;20251;-74
2022/06/14 02:40:42;;;;;;;8.65;4.82;;;22.30;99.90;;;;;;5093228;28;20209;-75
2022/06/14 02:43:15;;;;;;;5.57;5.07;;;22.40;99.90;;;;;;5092664;28;20686;-75
2022/06/14 02:45:48;;;;;;;6.78;6.13;;;22.30;99.90;;;;;;5081166;28;20210;-73
2022/06/14 02:48:20;;;;;;;5.75;5.15;;;22.30;99.90;;;;;;5091149;28;20202;-73
2022/06/14 02:50:51;;;;;;;6.65;6.05;;;22.30;99.90;;;;;;5092799;28;20259;-75
2022/06/14 02:53:23;;;;;;;6.57;5.63;;;22.30;99.90;;;;;;5092515;28;20270;-74
2022/06/14 02:55:55;;;;;;;6.25;5.53;;;22.20;99.90;;;;;;5091953;28;20236;-73
2022/06/14 02:58:26;;;;;;;5.35;4.78;;;22.10;99.90;;;;;;5092468;28;20682;-75
2022/06/14 03:00:57;;;;;;;5.50;4.95;;;22.20;99.90;;;;;;5092737;28;20201;-72
2022/06/14 03:03:29;;;;;;;6.35;5.75;;;22.20;99.90;;;;;;5092130;28;20286;-73
2022/06/14 03:06:04;;;;;;;8.45;7.57;;;22.20;99.90;;;;;;5093151;28;20205;-75
2022/06/14 03:08:35;;;;;;;8.45;6.88;;;22.20;99.90;;;;;;5092746;28;20205;-72
2022/06/14 03:11:09;;;;;;;7.13;6.38;;;22.20;99.90;;;;;;5092187;28;20206;-73
2022/06/14 03:13:41;;;;;;;8.10;6.07;;;22.20;99.90;;;;;;5092290;28;20623;-74
2022/06/14 03:16:19;;;;;;;7.40;6.03;;;22.10;99.90;;;;;;5092415;28;20205;-75
2022/06/14 03:18:52;;;;;;;6.95;6.35;;;22.10;99.90;;;;;;5092321;28;20205;-76
2022/06/14 03:21:22;;;;;;;6.95;6.25;;;21.90;99.90;;;;;;5091917;28;20274;-75
2022/06/14 03:24:00;;;;;;;8.07;5.68;;;21.90;99.90;;;;;;5092042;28;20205;-75
2022/06/14 03:26:34;;;;;;;8.30;5.50;;;21.90;99.90;;;;;;5092695;28;20209;-76
2022/06/14 03:29:06;;;;;;;6.07;5.18;;;21.80;99.90;;;;;;5092048;28;20236;-75
2022/06/14 03:31:38;;;;;;;7.28;6.03;;;21.80;99.90;;;;;;5092015;28;20209;-75
2022/06/14 03:34:11;;;;;;;8.52;5.63;;;21.90;99.90;;;;;;5091732;28;20254;-73
2022/06/14 03:36:38;;;;;;;5.70;5.13;;;21.80;99.90;;;;;;5092265;28;20205;-76
2022/06/14 03:39:10;;;;;;;6.22;5.50;;;21.90;99.90;;;;;;5091409;28;20235;-76
2022/06/14 03:41:43;;;;;;;7.05;5.80;;;21.80;99.90;;;;;;5092044;28;20709;-76
2022/06/14 03:44:12;;;;;;;5.88;5.28;;;21.70;99.90;;;;;;5091619;28;20206;-73
2022/06/14 03:46:42;;;;;;;8.40;5.82;;;21.70;99.90;;;;;;5077456;28;20205;-76
2022/06/14 03:49:15;;;;;;;6.82;5.85;;;21.70;99.90;;;;;;5091844;28;20201;-75
2022/06/14 03:51:57;;;;;;;6.22;5.63;;;21.60;99.90;;;;;;5091898;28;20205;-75
2022/06/14 03:54:48;;;;;;;5.65;5.13;;;21.50;99.90;;;;;;5091479;28;20262;-76
2022/06/14 03:57:34;;;;;;;7.07;6.30;;;21.50;99.90;;;;;;5091263;28;20658;-74
2022/06/14 04:00:14;;;;;;;6.03;5.43;;;21.60;99.90;;;;;;5091448;28;20279;-74
2022/06/14 04:02:54;;;;;;;7.78;6.60;;;21.60;99.90;;;;;;5091522;28;20233;-76
2022/06/14 04:05:48;;;;;;;6.43;5.35;;;21.60;99.90;;;;;;5091141;28;20266;-75
2022/06/14 04:08:25;;;;;;;7.20;5.57;;;21.60;99.90;;;;;;5090954;28;20730;-75
2022/06/14 04:11:00;;;;;;;7.30;5.60;;;21.60;99.90;;;;;;5091498;28;20254;-77
2022/06/14 04:13:40;;;;;;;5.88;5.35;;;21.70;99.90;;;;;;5091641;28;20672;-77
2022/06/14 04:16:18;;;;;;;6.72;5.38;;;21.70;99.90;;;;;;5090805;28;20205;-76
2022/06/14 04:18:51;;;;;;;7.43;6.57;;;21.70;99.90;;;;;;5091294;28;20262;-76
2022/06/14 04:21:31;;;;;;;6.50;5.32;;;21.70;99.90;;;;;;5091066;28;20206;-75
2022/06/14 04:24:05;;;;;;;7.85;5.68;;;21.70;99.90;;;;;;5091578;28;20209;-76
2022/06/14 04:26:40;;;;;;;6.10;5.47;;;21.70;99.90;;;;;;5090863;28;20213;-75
2022/06/14 04:29:13;;;;;;;6.93;6.10;;;21.80;99.90;;;;;;5090236;28;20254;-75
2022/06/14 04:31:45;;;;;;;6.32;5.45;;;21.70;99.90;;;;;;5091205;28;20262;-73
2022/06/14 04:34:18;;;;;;;6.72;5.28;;;21.70;99.90;;;;;;5090546;28;20630;-75
2022/06/14 04:36:55;;;;;;;7.30;6.15;;;21.80;99.90;;;;;;5090985;28;20209;-76
2022/06/14 04:39:26;;;;;;;7.28;5.93;;;21.70;99.90;;;;;;5090438;28;20207;-75
2022/06/14 04:41:59;;;;;;;7.18;5.57;;;21.80;99.90;;;;;;5090832;28;20818;-75
2022/06/14 04:44:33;;;;;;;7.90;6.35;;;21.80;99.90;;;;;;5089040;28;20681;-75
2022/06/14 04:47:06;;;;;;;7.40;6.00;;;21.90;99.90;;;;;;5079080;28;20200;-75
2022/06/14 04:49:38;;;;;;;6.40;5.55;;;21.90;99.90;;;;;;5090473;28;20619;-75
2022/06/14 04:52:10;;;;;;;7.00;6.05;;;21.90;99.90;;;;;;5090264;28;20269;-75
2022/06/14 04:54:46;;;;;;;6.43;5.25;;;22.00;99.90;;;;;;5090393;28;20258;-74
2022/06/14 04:57:19;;;;;;;6.65;5.30;;;22.00;99.90;;;;;;5090336;28;20209;-76
2022/06/14 04:59:51;;;;;;;9.02;5.93;;;22.10;99.90;;;;;;5089930;28;20259;-74
2022/06/14 05:02:22;;;;;;;6.20;5.60;;;22.20;99.90;;;;;;5090358;28;20282;-74
2022/06/14 05:04:54;;;;;;;7.70;5.80;;;22.20;99.90;;;;;;5073717;28;20267;-79
2022/06/14 05:07:26;;;;;;;11.50;6.10;;;22.20;99.90;;;;;;5071058;28;20198;-76
2022/06/14 05:09:58;;;;;;;8.27;6.60;;;22.30;99.90;;;;;;5073190;28;20247;-81
2022/06/14 05:12:28;;;;;;;8.63;6.65;;;22.30;99.90;;;;;;5071753;28;20225;-81
2022/06/14 05:15:02;;;;;;;6.65;5.68;;;22.30;99.90;;;;;;5075172;28;20217;-74
2022/06/14 05:17:33;;;;;;;9.45;6.40;;;22.40;99.90;;;;;;5073632;28;20210;-74
2022/06/14 05:20:06;;;;;;;5.10;4.70;;;22.40;99.90;;;;;;5080519;28;20629;-75
2022/06/14 05:22:40;;;;;;;6.38;5.13;;;22.50;99.90;;;;;;5077366;28;20697;-77
2022/06/14 05:25:09;;;;;;;6.25;4.22;;;22.50;99.90;;;;;;5080645;28;20205;-74
2022/06/14 05:27:45;;;;;;;6.35;5.05;;;22.60;99.90;;;;;;5077492;28;20683;-76
2022/06/14 05:30:37;;;;;;;6.38;4.60;;;22.70;99.90;;;;;;5081544;28;20266;-77
2022/06/14 05:33:12;;;;;;;8.20;5.03;;;22.60;99.90;;;;;;5071331;28;20674;-77
2022/06/14 05:35:43;;;;;;;7.22;4.32;;;22.70;99.90;;;;;;5075756;28;20202;-78
2022/06/14 05:38:19;;;;;;;9.27;5.18;;;22.70;99.90;;;;;;5078072;28;20210;-77
2022/06/14 05:40:52;;;;;;;10.48;8.85;;;22.70;99.90;;;;;;5081608;28;20210;-75
2022/06/14 05:43:31;;;;;;;19.02;13.75;;;22.70;99.90;;;;;;5079371;28;20271;-76
2022/06/14 05:46:04;;;;;;;9.95;7.50;;;22.70;99.90;;;;;;5076254;28;20723;-79
2022/06/14 05:48:34;;;;;;;7.45;5.55;;;22.90;99.90;;;;;;5074526;28;20229;-80
2022/06/14 05:51:02;;;;;;;4.95;4.50;;;23.00;99.90;;;;;;5075662;28;20210;-79
2022/06/14 05:53:35;;;;;;;6.80;4.53;;;23.00;99.90;;;;;;5075979;28;20206;-79
2022/06/14 05:56:09;;;;;;;4.57;4.13;;;23.10;99.90;;;;;;5076489;28;20281;-74
2022/06/14 05:58:41;;;;;;;6.63;4.10;;;23.20;99.90;;;;;;5062775;28;20267;-79
2022/06/14 06:01:13;;;;;;;6.63;4.03;;;23.20;99.90;;;;;;5078646;28;20210;-78
2022/06/14 06:03:46;;;;;;;4.82;4.10;;;23.40;99.90;;;;;;5077681;28;20669;-75
2022/06/14 06:06:18;;;;;;;3.85;3.55;;;23.40;99.90;;;;;;5080220;28;20202;-74
2022/06/14 06:08:50;;;;;;;4.15;3.83;;;23.30;99.90;;;;;;5078547;28;20194;-74
2022/06/14 06:11:22;;;;;;;4.82;4.00;;;23.30;99.90;;;;;;5081403;28;20201;-79
2022/06/14 06:13:52;;;;;;;9.27;4.38;;;23.30;99.90;;;;;;5079885;28;20209;-74
2022/06/14 06:16:26;;;;;;;5.38;3.47;;;23.30;99.90;;;;;;5083655;28;20247;-80
2022/06/14 06:18:57;;;;;;;6.03;3.83;;;23.40;99.90;;;;;;5081319;28;20206;-74
2022/06/14 06:21:31;;;;;;;6.95;3.53;;;23.40;99.90;;;;;;5084952;28;20255;-75
2022/06/14 06:24:04;;;;;;;4.70;3.28;;;23.60;99.90;;;;;;5075761;28;20644;-74
2022/06/14 06:26:35;;;;;;;4.15;3.63;;;23.80;99.90;;;;;;5076462;28;20267;-71
2022/06/14 06:29:10;;;;;;;3.78;3.20;;;23.80;99.90;;;;;;5073137;28;20218;-72
2022/06/14 06:31:39;;;;;;;10.88;3.75;;;23.90;99.90;;;;;;5063754;28;20609;-71
2022/06/14 06:34:11;;;;;;;3.83;3.05;;;24.10;99.90;;;;;;5070990;28;20210;-72
2022/06/14 06:36:49;;;;;;;5.72;3.15;;;24.10;99.90;;;;;;5071332;28;20202;-71
2022/06/14 06:39:31;;;;;;;5.93;3.63;;;24.20;99.90;;;;;;5071441;28;20202;-72
2022/06/14 06:42:05;;;;;;;6.93;4.30;;;24.30;99.90;;;;;;5066040;28;20248;-72
2022/06/14 06:44:39;;;;;;;4.10;3.60;;;24.40;99.90;;;;;;5067739;28;20226;-72
2022/06/14 06:47:14;;;;;;;7.55;4.82;;;24.50;99.90;;;;;;5072619;28;20289;-76
2022/06/14 06:49:51;;;;;;;5.40;3.50;;;24.60;99.90;;;;;;5075132;28;20673;-73
2022/06/14 06:52:23;;;;;;;5.38;2.78;;;24.60;99.90;;;;;;5088279;28;20201;-70
2022/06/14 06:54:57;;;;;;;4.65;3.45;;;24.60;99.90;;;;;;5089641;28;20210;-70
2022/06/14 06:57:27;;;;;;;6.45;2.90;;;24.80;99.90;;;;;;5092014;28;20209;-71
2022/06/14 06:59:57;;;;;;;6.28;4.35;;;25.00;99.90;;;;;;5092812;28;20205;-73
2022/06/14 07:02:30;;;;;;;5.40;3.30;;;25.00;99.90;;;;;;5092301;28;20201;-73
2022/06/14 07:05:05;;;;;;;7.70;3.53;;;25.30;99.90;;;;;;5086824;28;20206;-67
2022/06/14 07:07:45;;;;;;;8.20;2.97;;;25.30;99.90;;;;;;5092835;28;20587;-69
2022/06/14 07:10:31;;;;;;;4.15;3.10;;;25.40;99.90;;;;;;5091921;28;20205;-68
2022/06/14 07:13:02;;;;;;;5.97;3.28;;;25.50;99.90;;;;;;5092385;28;20213;-70
2022/06/14 07:15:35;;;;;;;4.20;3.08;;;25.50;99.90;;;;;;5092815;28;20205;-70
2022/06/14 07:18:13;;;;;;;4.47;2.70;;;25.60;99.90;;;;;;5085899;28;20209;-69
2022/06/14 07:20:50;;;;;;;3.85;2.53;;;25.80;99.90;;;;;;5092357;28;20259;-69
2022/06/14 07:23:23;;;;;;;5.20;3.15;;;25.70;99.90;;;;;;5089786;28;20268;-69
2022/06/14 07:26:03;;;;;;;3.05;2.70;;;25.90;99.90;;;;;;5064186;28;20224;-70
2022/06/14 07:28:36;;;;;;;7.93;3.55;;;26.20;99.90;;;;;;5092576;28;20204;-68
2022/06/14 07:31:07;;;;;;;4.82;2.63;;;26.20;99.90;;;;;;5065530;28;20209;-67
2022/06/14 07:33:37;;;;;;;6.68;3.17;;;26.30;99.90;;;;;;5092103;28;20282;-68
2022/06/14 07:36:13;;;;;;;7.07;2.92;;;26.60;99.90;;;;;;5091782;28;20209;-71
2022/06/14 07:38:50;;;;;;;4.13;2.95;;;26.60;99.90;;;;;;5091803;28;20630;-69
2022/06/14 07:41:29;;;;;;;17.65;4.47;;;26.40;99.90;;;;;;5091133;28;20217;-72
2022/06/14 07:44:02;;;;;;;2.90;2.70;;;26.60;99.90;;;;;;5091918;28;20240;-73
2022/06/14 07:46:38;;;;;;;5.63;3.50;;;26.80;99.90;;;;;;5077775;28;20209;-68
2022/06/14 07:49:12;;;;;;;4.25;2.85;;;27.20;99.90;;;;;;5091579;28;20296;-73
2022/06/14 07:51:43;;;;;;;5.20;2.95;;;27.30;99.90;;;;;;5091639;28;20247;-73
2022/06/14 07:54:16;;;;;;;2.63;2.25;;;27.40;99.90;;;;;;5091244;28;20217;-73
2022/06/14 07:56:50;;;;;;;3.83;2.90;;;27.90;99.90;;;;;;5091602;28;20236;-73
2022/06/14 07:59:21;;;;;;;4.90;3.08;;;28.00;99.90;;;;;;5091279;28;20204;-68
2022/06/14 08:01:53;;;;;;;3.65;2.60;;;28.00;99.90;;;;;;5075562;28;20259;-70
2022/06/14 08:04:27;;;;;;;4.60;2.35;;;27.80;99.90;;;;;;5091059;28;20236;-72
2022/06/14 08:06:58;;;;;;;3.67;2.10;;;28.70;99.90;;;;;;5091298;28;20205;-69
2022/06/14 08:09:29;;;;;;;4.70;2.95;;;29.60;99.90;;;;;;5091239;28;20213;-69
2022/06/14 08:11:58;;;;;;;6.03;2.58;;;29.00;99.90;;;;;;5091494;28;20669;-69
2022/06/14 08:14:28;;;;;;;3.15;2.60;;;28.50;99.90;;;;;;5091672;28;20210;-69
2022/06/14 08:16:57;;;;;;;3.75;1.90;;;28.40;99.90;;;;;;5091907;28;20304;-70
2022/06/14 08:19:29;;;;;;;5.57;2.88;;;28.40;99.90;;;;;;5091023;28;20206;-68
2022/06/14 08:22:02;;;;;;;5.75;2.05;;;28.30;99.90;;;;;;5091204;28;20239;-68
2022/06/14 08:24:34;;;;;;;3.85;2.42;;;28.40;99.90;;;;;;5091715;28;20270;-68
2022/06/14 08:27:05;;;;;;;5.72;3.00;;;28.40;99.90;;;;;;5091231;28;20566;-70
2022/06/14 08:29:38;;;;;;;3.13;2.83;;;28.40;99.90;;;;;;5091190;28;20213;-72
2022/06/14 08:32:13;;;;;;;3.90;3.53;;;28.70;99.90;;;;;;5090387;28;20201;-72
2022/06/14 08:34:47;;;;;;;4.60;2.75;;;28.80;99.90;;;;;;5078066;28;20209;-70
2022/06/14 08:37:19;;;;;;;3.42;2.55;;;29.00;99.90;;;;;;5090263;28;20742;-69
2022/06/14 08:39:51;;;;;;;4.28;2.60;;;28.90;99.90;;;;;;5091048;28;20585;-72
2022/06/14 08:42:28;;;;;;;2.75;2.38;;;28.90;99.90;;;;;;5090418;28;20213;-72
2022/06/14 08:44:59;;;;;;;2.38;2.15;;;29.10;99.90;;;;;;5085682;28;20226;-68
2022/06/14 08:47:57;;;;;;;3.80;2.63;;;29.60;99.90;;;;;;5082603;28;20616;-68
2022/06/14 08:50:57;;;;;;;4.28;3.13;;;29.40;99.90;;;;;;5052910;28;20203;-71
2022/06/14 08:54:04;;;;;;;4.70;3.17;;;29.20;99.90;;;;;;5074793;28;20642;-70
2022/06/14 08:56:45;;;;;;;4.10;2.55;;;29.80;99.90;;;;;;5075357;28;20262;-69
2022/06/14 08:59:37;;;;;;;3.33;2.70;;;29.60;99.90;;;;;;5070386;28;20251;-69
2022/06/14 09:02:32;;;;;;;4.50;2.85;;;29.40;99.90;;;;;;5058214;28;20210;-72
2022/06/14 09:05:23;;;;;;;7.50;3.63;;;30.00;99.90;;;;;;5072939;28;20229;-75
2022/06/14 09:08:26;;;;;;;5.50;3.80;;;30.50;99.90;;;;;;5069198;28;20213;-68
2022/06/14 09:11:25;;;;;;;6.28;4.10;;;30.80;99.90;;;;;;5064515;28;20259;-68
2022/06/14 09:14:24;;;;;;;10.73;2.97;;;31.30;99.90;;;;;;5072735;28;20298;-69
2022/06/14 09:17:37;;;;;;;3.28;2.97;;;31.90;99.90;;;;;;5075726;28;20262;-75
2022/06/14 09:20:09;;;;;;;3.20;2.92;;;31.40;99.90;;;;;;5049586;28;20626;-75
2022/06/14 09:22:39;;;;;;;6.55;2.95;;;31.50;99.90;;;;;;5070334;28;20650;-71
2022/06/14 09:25:15;;;;;;;3.42;2.20;;;31.10;99.90;;;;;;5079756;28;20653;-76
2022/06/14 09:28:09;;;;;;;4.05;2.88;;;32.10;99.90;;;;;;5069303;28;20247;-76
2022/06/14 09:30:54;;;;;;;4.43;3.13;;;33.20;99.90;;;;;;5073582;28;20247;-72
2022/06/14 09:34:05;;;;;;;6.50;2.53;;;34.30;99.90;;;;;;5080660;28;20672;-69
2022/06/14 09:37:14;;;;;;;3.35;2.10;;;36.00;99.90;;;;;;5035882;28;20206;-74
2022/06/14 09:40:02;;;;;;;2.58;2.38;;;35.60;99.90;;;;;;5005718;28;20206;-70
2022/06/14 09:43:17;;;;;;;3.47;2.50;;;37.20;99.90;;;;;;5079354;28;20650;-74
2022/06/14 09:46:14;;;;;;;2.63;2.42;;;37.10;99.90;;;;;;5005814;28;20203;-71
2022/06/14 09:49:20;;;;;;;3.20;2.90;;;38.50;99.90;;;;;;5049501;28;20657;-70
2022/06/14 09:52:18;;;;;;;3.28;2.33;;;36.60;99.90;;;;;;5069893;28;20264;-74
2022/06/14 09:55:12;;;;;;;5.05;2.72;;;36.40;99.90;;;;;;5069740;28;20749;-75
2022/06/14 09:58:21;;;;;;;2.65;2.40;;;34.50;99.90;;;;;;5069916;28;20210;-71
2022/06/14 10:00:54;;;;;;;5.40;3.00;;;34.40;99.90;;;;;;5060704;28;20282;-70
2022/06/14 10:03:49;;;;;;;4.13;2.63;;;35.00;99.90;;;;;;5069009;28;20620;-75
2022/06/14 10:06:40;;;;;;;4.47;2.28;;;37.40;99.90;;;;;;5071210;28;20255;-72
2022/06/14 10:09:36;;;;;;;2.75;2.13;;;38.90;99.90;;;;;;5065004;28;20210;-69
2022/06/14 10:12:31;;;;;;;3.38;2.30;;;40.00;99.90;;;;;;5073776;28;20209;-72
2022/06/14 10:15:06;;;;;;;2.58;2.35;;;38.70;99.90;;;;;;5077165;28;20212;-69
2022/06/14 10:18:03;;;;;;;4.53;1.90;;;37.50;99.90;;;;;;5074339;28;20262;-71
2022/06/14 10:20:49;;;;;;;4.13;2.30;;;37.10;99.90;;;;;;5068072;28;20232;-69
2022/06/14 10:23:32;;;;;;;4.10;2.30;;;37.90;99.90;;;;;;5076197;28;20201;-72
2022/06/14 10:29:13;;;;;;;5.95;2.95;;;39.20;99.90;;;;;;5075889;28;20339;-70
2022/06/14 10:31:53;;;;;;;3.90;2.25;;;36.60;99.90;;;;;;5076049;28;20737;-79
2022/06/14 10:34:25;;;;;;;4.45;2.88;;;37.10;99.90;;;;;;5070550;28;20566;-71
2022/06/14 10:37:18;;;;;;;3.88;3.00;;;37.30;99.90;;;;;;5083337;28;20250;-70
2022/06/14 10:40:24;;;;;;;4.18;2.90;;;34.20;99.90;;;;;;5075748;28;20208;-70
2022/06/14 10:43:02;;;;;;;5.85;3.05;;;33.90;99.90;;;;;;5066507;28;20209;-79
2022/06/14 10:45:34;;;;;;;5.22;2.50;;;33.60;99.90;;;;;;5066947;28;20228;-72
2022/06/14 10:48:37;;;;;;;2.85;2.28;;;33.40;99.90;;;;;;5089564;28;20208;-71
2022/06/14 10:51:19;;;;;;;9.25;3.13;;;34.20;99.90;;;;;;5092977;28;20630;-71
2022/06/14 10:53:55;;;;;;;3.30;2.55;;;34.10;99.90;;;;;;5069156;28;20208;-72
2022/06/14 10:56:44;;;;;;;3.90;3.03;;;33.80;99.90;;;;;;5092371;28;20278;-72
2022/06/14 10:59:46;;;;;;;3.55;2.85;;;33.70;99.90;;;;;;5092635;28;20200;-72
2022/06/14 11:02:27;;;;;;;3.08;2.47;;;33.80;99.90;;;;;;5067241;28;20204;-71
2022/06/14 11:05:02;;;;;;;5.88;3.45;;;34.10;99.90;;;;;;5092511;28;20236;-71
2022/06/14 11:07:46;;;;;;;6.80;3.88;;;33.90;99.90;;;;;;5092977;28;20254;-72
2022/06/14 11:10:39;;;;;;;2.80;2.60;;;34.20;99.90;;;;;;5092252;28;20676;-71
2022/06/14 11:13:16;;;;;;;5.43;2.20;;;34.00;99.90;;;;;;5092207;28;20254;-71
2022/06/14 11:15:47;;;;;;;4.93;2.20;;;33.90;99.90;;;;;;5091748;28;20695;-70
2022/06/14 11:18:48;;;;;;;5.18;2.78;;;34.00;99.90;;;;;;5062767;28;20217;-72
2022/06/14 11:21:34;;;;;;;2.92;2.63;;;33.70;99.90;;;;;;5071555;28;20334;-70
2022/06/14 11:24:15;;;;;;;3.15;2.60;;;33.90;99.90;;;;;;5072078;28;20626;-73
2022/06/14 11:26:55;;;;;;;4.13;3.33;;;33.70;99.90;;;;;;5071995;28;20700;-70
2022/06/14 11:29:30;;;;;;;6.43;4.07;;;34.10;99.90;;;;;;5071666;28;20209;-70
2022/06/14 11:32:03;;;;;;;4.22;2.45;;;34.30;99.90;;;;;;5072178;28;20209;-71
2022/06/14 11:34:47;;;;;;;3.42;2.60;;;34.50;99.90;;;;;;5072102;28;20572;-73
2022/06/14 11:37:53;;;;;;;6.78;2.90;;;34.40;99.90;;;;;;5071481;28;20255;-72
2022/06/14 11:40:24;;;;;;;5.82;2.80;;;34.30;99.90;;;;;;5071482;28;20213;-76
2022/06/14 11:43:05;;;;;;;3.28;2.78;;;34.10;99.90;;;;;;5071884;28;20213;-77
2022/06/14 11:45:42;;;;;;;2.78;2.40;;;34.30;99.90;;;;;;5071345;28;20228;-74
2022/06/14 11:48:18;;;;;;;6.47;3.25;;;34.60;99.90;;;;;;5089172;28;20253;-74
2022/06/14 11:50:54;;;;;;;7.78;2.80;;;34.40;99.90;;;;;;5091959;28;20721;-72
2022/06/14 11:53:44;;;;;;;3.20;2.30;;;34.20;99.90;;;;;;5091534;28;20277;-75
2022/06/14 11:56:17;;;;;;;3.22;2.90;;;34.40;99.90;;;;;;5091477;28;20261;-72
2022/06/14 11:59:03;;;;;;;7.78;3.50;;;34.70;99.90;;;;;;5091710;28;20564;-73
2022/06/14 12:01:39;;;;;;;3.95;2.88;;;34.30;99.90;;;;;;5062678;28;20210;-72
2022/06/14 12:04:26;;;;;;;3.38;2.65;;;34.60;99.90;;;;;;5070836;28;20571;-72
2022/06/14 12:06:58;;;;;;;4.03;2.92;;;34.70;99.90;;;;;;5071013;28;20258;-70
2022/06/14 12:09:51;;;;;;;6.40;3.70;;;34.80;99.90;;;;;;5070988;28;20255;-72
2022/06/14 12:12:27;;;;;;;5.95;3.13;;;35.10;99.90;;;;;;5059318;28;20660;-77
2022/06/14 12:15:00;;;;;;;4.47;2.60;;;35.20;99.90;;;;;;5070722;28;20263;-73
2022/06/14 12:17:30;;;;;;;5.70;2.65;;;34.50;99.90;;;;;;5071638;28;20310;-73
2022/06/14 12:20:05;;;;;;;4.05;3.22;;;34.70;99.90;;;;;;5071422;28;20286;-78
2022/06/14 12:22:47;;;;;;;5.45;3.40;;;34.90;99.90;;;;;;5071133;28;20197;-77
2022/06/14 12:28:15;;;;;;;3.25;2.97;;;35.10;99.90;;;;;;5070595;28;20243;-77
2022/06/14 12:30:45;;;;;;;2.90;2.35;;;35.10;99.90;;;;;;5065608;28;20247;-70
2022/06/14 12:33:22;;;;;;;4.90;3.13;;;35.10;99.90;;;;;;5075009;28;20208;-78
2022/06/14 12:36:02;;;;;;;7.88;2.85;;;34.90;99.90;;;;;;5074289;28;20673;-74
2022/06/14 12:38:35;;;;;;;3.38;2.67;;;35.10;99.90;;;;;;5072121;28;20257;-81
2022/06/14 12:41:11;;;;;;;4.28;2.83;;;35.10;99.90;;;;;;5076777;28;20653;-73
2022/06/14 12:43:52;;;;;;;3.67;2.95;;;35.10;99.90;;;;;;5076734;28;20206;-73
2022/06/14 12:46:24;;;;;;;4.28;3.13;;;34.80;99.90;;;;;;5067114;28;20601;-77
2022/06/14 12:48:58;;;;;;;6.88;2.55;;;35.60;99.90;;;;;;5068365;28;20256;-82
2022/06/14 12:51:30;;;;;;;6.10;2.67;;;35.60;99.90;;;;;;5067799;28;20210;-77
2022/06/14 12:54:04;;;;;;;5.53;3.13;;;35.60;99.90;;;;;;5068537;28;20582;-78
2022/06/14 12:56:37;;;;;;;4.95;2.72;;;35.40;99.90;;;;;;5062426;28;20321;-70
2022/06/14 12:59:12;;;;;;;4.45;2.63;;;35.40;99.90;;;;;;5070436;28;20330;-83
2022/06/14 13:01:46;;;;;;;7.68;3.53;;;35.20;99.90;;;;;;5072278;28;20642;-83
2022/06/14 13:04:18;;;;;;;6.10;2.92;;;35.20;99.90;;;;;;5073044;28;20274;-81
2022/06/14 13:07:01;;;;;;;7.65;2.22;;;35.10;99.90;;;;;;5073126;28;20243;-80
2022/06/14 13:09:40;;;;;;;8.48;3.88;;;35.20;99.90;;;;;;5073643;28;20210;-80
2022/06/14 13:12:19;;;;;;;5.28;2.88;;;34.90;99.90;;;;;;5069732;28;20290;-80
2022/06/14 13:14:57;;;;;;;5.93;2.67;;;35.00;99.90;;;;;;5072273;28;20270;-83
2022/06/14 13:17:42;;;;;;;5.10;2.67;;;35.40;99.90;;;;;;5064717;28;20258;-77
2022/06/14 13:20:23;;;;;;;4.68;3.03;;;35.40;99.90;;;;;;5067563;28;20201;-81
2022/06/14 13:23:04;;;;;;;7.68;2.92;;;35.40;99.90;;;;;;5055549;28;20206;-75
2022/06/14 13:25:45;;;;;;;4.07;3.70;;;35.50;99.90;;;;;;5064081;28;20354;-73
2022/06/14 13:28:23;;;;;;;3.97;2.47;;;35.50;99.90;;;;;;5073722;28;20229;-77
2022/06/14 13:30:59;;;;;;;7.85;4.28;;;35.60;99.90;;;;;;5076339;28;20197;-76
2022/06/14 13:33:44;;;;;;;6.10;2.38;;;35.70;99.90;;;;;;5078948;28;20230;-74
2022/06/14 13:36:20;;;;;;;5.10;3.55;;;36.00;99.90;;;;;;5073065;28;20209;-72
2022/06/14 13:38:54;;;;;;;5.88;2.72;;;36.10;99.90;;;;;;5075515;28;20211;-79
2022/06/14 13:41:32;;;;;;;6.75;3.45;;;36.10;99.90;;;;;;5076527;28;20221;-77
2022/06/14 13:44:08;;;;;;;5.00;3.30;;;35.60;99.90;;;;;;5083160;28;20250;-79